Time;durP1;ratioP1;P1;durP2;ratioP2;P2;SDS_P1;SDS_P2;PMS_P1;PMS_P2;Temp;Humidity;BMP_temperature;BMP_pressure;BME280_temperature;BME280_humidity;BME280_pressure;Samples;Min_cycle;Max_cycle;Signal;HPM_P1;HPM_P2
2023/03/26 00:01:24;;;;;;;6.17;1.60;;;;;;;5.99;90.67;95069.34;6130317;23;20160;-85
2023/03/26 00:03:54;;;;;;;7.03;1.77;;;;;;;5.97;90.15;95066.91;6129684;23;20166;-85
2023/03/26 00:06:30;;;;;;;9.70;1.67;;;;;;;6.04;90.15;95074.13;6129234;23;20182;-85
2023/03/26 00:08:56;;;;;;;9.13;1.60;;;;;;;5.92;90.51;95070.84;6129968;23;20229;-85
2023/03/26 00:11:23;;;;;;;6.23;1.70;;;;;;;5.91;90.45;95079.47;6129771;23;20159;-86
2023/03/26 00:13:52;;;;;;;11.93;2.03;;;;;;;6.00;90.49;95081.28;6105621;23;20218;-85
2023/03/26 00:16:19;;;;;;;7.20;2.03;;;;;;;5.94;90.68;95064.59;6104177;23;20246;-87
2023/03/26 00:18:44;;;;;;;12.00;2.00;;;;;;;5.92;90.40;95074.22;6104824;23;20195;-86
2023/03/26 00:21:15;;;;;;;5.73;1.93;;;;;;;5.95;90.48;95076.53;6105338;23;20620;-85
2023/03/26 00:23:41;;;;;;;12.93;3.67;;;;;;;5.86;90.05;95072.13;6130210;23;20155;-85
2023/03/26 00:26:11;;;;;;;7.70;1.60;;;;;;;6.00;89.09;95073.53;6105281;23;20535;-84
2023/03/26 00:28:39;;;;;;;9.43;2.00;;;;;;;6.09;88.83;95071.94;6125179;23;20215;-84
2023/03/26 00:31:10;;;;;;;6.77;1.50;;;;;;;6.18;88.32;95068.56;6102359;23;20163;-86
2023/03/26 00:33:37;;;;;;;7.93;1.80;;;;;;;6.10;89.18;95065.88;6103071;23;20168;-84
2023/03/26 00:36:04;;;;;;;8.47;1.93;;;;;;;6.07;88.66;95060.97;6128767;23;20155;-85
2023/03/26 00:38:30;;;;;;;9.10;1.93;;;;;;;6.07;88.59;95056.63;6111589;23;20188;-86
2023/03/26 00:41:04;;;;;;;8.10;1.77;;;;;;;6.07;88.97;95061.78;6137704;23;20182;-86
2023/03/26 00:43:31;;;;;;;7.00;1.93;;;;;;;6.18;88.75;95063.41;6140442;23;20179;-86
2023/03/26 00:45:57;;;;;;;7.73;1.80;;;;;;;6.22;88.56;95063.03;6115379;23;20496;-87
2023/03/26 00:48:23;;;;;;;9.27;1.73;;;;;;;6.23;88.74;95048.38;6114310;23;20179;-86
2023/03/26 00:50:49;;;;;;;6.37;1.77;;;;;;;6.12;90.05;95045.91;6139102;23;20160;-85
2023/03/26 00:53:15;;;;;;;7.17;1.83;;;;;;;6.12;89.42;95046.72;6115047;23;20167;-87
2023/03/26 00:55:42;;;;;;;3.33;1.40;;;;;;;6.05;90.11;95040.47;6119804;23;20163;-87
2023/03/26 00:58:10;;;;;;;4.83;1.63;;;;;;;6.01;90.57;95039.13;6120258;23;20199;-87
2023/03/26 01:00:42;;;;;;;6.17;1.60;;;;;;;6.09;90.17;95035.84;6144228;23;20247;-86
2023/03/26 01:03:11;;;;;;;7.23;1.80;;;;;;;6.11;90.15;95039.13;6143692;23;20168;-88
2023/03/26 01:05:43;;;;;;;7.53;1.40;;;;;;;6.02;91.10;95042.50;6119118;23;20160;-86
2023/03/26 01:08:17;;;;;;;9.33;1.97;;;;;;;6.03;90.89;95031.25;6118920;23;20160;-86
2023/03/26 01:10:49;;;;;;;6.40;1.63;;;;;;;5.96;91.38;95023.22;6119981;23;20570;-87
2023/03/26 01:13:16;;;;;;;6.60;1.50;;;;;;;5.96;91.65;95018.88;6120682;23;20184;-86
2023/03/26 01:15:42;;;;;;;4.73;1.70;;;;;;;5.87;92.28;95014.50;6119166;23;20159;-85
2023/03/26 01:18:08;;;;;;;7.50;2.40;;;;;;;5.86;92.54;95009.47;6118041;23;20176;-87
2023/03/26 01:20:37;;;;;;;2.13;1.30;;;;;;;5.87;92.05;95009.34;6144399;23;20155;-87
2023/03/26 01:23:05;;;;;;;5.40;1.43;;;;;;;5.84;92.97;95011.38;6114586;23;20242;-86
2023/03/26 01:25:36;;;;;;;4.13;1.87;;;;;;;5.81;93.46;95003.88;6104471;23;20170;-87
2023/03/26 01:28:02;;;;;;;7.47;1.83;;;;;;;5.71;94.02;94998.72;6103738;23;20184;-88
2023/03/26 01:30:33;;;;;;;4.23;1.43;;;;;;;5.88;93.27;94998.06;6129675;23;20159;-86
2023/03/26 01:33:04;;;;;;;7.03;1.80;;;;;;;5.82;93.64;94996.03;6105945;23;20176;-86
2023/03/26 01:35:52;;;;;;;6.30;1.67;;;;;;;5.94;92.17;94984.69;6130107;23;20156;-86
2023/03/26 01:38:49;;;;;;;5.63;1.60;;;;;;;5.82;93.24;94982.31;6105685;23;20195;-87
2023/03/26 01:41:28;;;;;;;7.97;1.90;;;;;;;5.83;92.84;94978.78;6130659;23;20148;-86
2023/03/26 01:44:16;;;;;;;5.60;1.73;;;;;;;5.82;92.90;94962.53;6154632;23;20155;-86
2023/03/26 01:46:41;;;;;;;6.27;1.77;;;;;;;5.79;92.75;94961.97;6131876;23;20140;-87
2023/03/26 01:49:11;;;;;;;7.97;1.93;;;;;;;5.63;93.35;94955.56;6106790;23;20186;-86
2023/03/26 01:51:39;;;;;;;4.80;1.77;;;;;;;5.69;93.89;94951.66;6107672;23;20156;-86
2023/03/26 01:54:06;;;;;;;4.63;1.57;;;;;;;5.81;92.80;94945.44;6106283;23;20166;-86
2023/03/26 01:56:34;;;;;;;7.97;1.63;;;;;;;5.75;93.02;94940.84;6105249;23;20163;-86
2023/03/26 01:59:06;;;;;;;3.97;1.50;;;;;;;5.71;92.88;94933.50;6155657;23;20192;-85
2023/03/26 02:01:44;;;;;;;4.30;1.90;;;;;;;5.72;93.02;94923.06;6156505;23;20207;-86
2023/03/26 02:04:14;;;;;;;5.53;1.60;;;;;;;5.60;94.39;94919.78;6132028;23;20508;-86
2023/03/26 02:06:45;;;;;;;9.17;1.50;;;;;;;5.82;92.81;94916.16;6105517;23;20239;-86
2023/03/26 02:09:13;;;;;;;5.00;1.57;;;;;;;5.75;93.58;94915.06;6106409;23;20183;-85
2023/03/26 02:11:39;;;;;;;9.10;1.90;;;;;;;5.53;95.03;94910.94;6137361;23;20143;-87
2023/03/26 02:14:06;;;;;;;5.73;1.77;;;;;;;5.69;94.61;94900.94;6154404;23;20204;-88
2023/03/26 02:16:31;;;;;;;6.47;1.73;;;;;;;5.63;95.04;94895.50;6151072;23;20143;-85
2023/03/26 02:18:58;;;;;;;6.53;1.63;;;;;;;5.64;95.02;94900.53;6127854;23;20187;-87
2023/03/26 02:21:25;;;;;;;6.83;1.90;;;;;;;5.66;94.33;94897.84;6153301;23;20144;-86
2023/03/26 02:24:01;;;;;;;6.43;2.00;;;;;;;5.67;94.91;94896.88;6129390;23;20199;-89
2023/03/26 02:26:30;;;;;;;5.10;1.63;;;;;;;5.65;94.82;94893.63;6129710;23;20168;-87
2023/03/26 02:28:57;;;;;;;8.97;1.77;;;;;;;5.67;94.47;94894.31;6142241;23;20191;-85
2023/03/26 02:31:25;;;;;;;6.23;1.90;;;;;;;5.66;94.04;94879.81;6134623;23;20306;-86
2023/03/26 02:33:51;;;;;;;6.77;2.07;;;;;;;5.73;93.49;94880.06;6110500;23;20282;-84
2023/03/26 02:36:18;;;;;;;8.10;2.00;;;;;;;5.70;93.58;94881.16;6131743;23;20524;-85
2023/03/26 02:38:43;;;;;;;5.83;2.20;;;;;;;5.67;93.57;94886.59;6130839;23;20277;-86
2023/03/26 02:41:09;;;;;;;11.87;2.70;;;;;;;5.66;93.93;94888.34;6105826;23;20187;-84
2023/03/26 02:43:34;;;;;;;8.50;1.50;;;;;;;5.55;93.86;94883.28;6108364;23;20163;-84
2023/03/26 02:45:59;;;;;;;11.60;2.20;;;;;;;5.66;93.27;94872.91;6133726;23;20159;-85
2023/03/26 02:48:25;;;;;;;6.03;1.63;;;;;;;5.68;93.36;94873.56;6108490;23;20179;-87
2023/03/26 02:50:53;;;;;;;5.83;1.70;;;;;;;5.68;92.83;94867.59;6107974;23;20159;-85
2023/03/26 02:53:20;;;;;;;7.83;2.07;;;;;;;5.69;93.14;94864.06;6157126;23;20148;-85
2023/03/26 02:55:46;;;;;;;6.80;1.70;;;;;;;5.56;94.32;94856.59;6132769;23;20182;-86
2023/03/26 02:58:16;;;;;;;6.43;1.80;;;;;;;5.66;93.56;94851.47;6107641;23;20187;-86
2023/03/26 03:00:44;;;;;;;2.43;1.37;;;;;;;5.60;94.03;94844.28;6133298;23;20218;-85
2023/03/26 03:03:10;;;;;;;7.07;2.43;;;;;;;5.53;94.10;94844.00;6109047;23;20151;-84
2023/03/26 03:05:37;;;;;;;8.30;1.90;;;;;;;5.67;94.13;94833.31;6108761;23;20173;-87
2023/03/26 03:08:04;;;;;;;9.60;1.73;;;;;;;5.81;93.04;94824.34;6109605;23;20329;-88
2023/03/26 03:10:31;;;;;;;5.60;1.70;;;;;;;5.77;93.24;94828.16;6109258;23;20186;-87
2023/03/26 03:12:57;;;;;;;4.23;1.57;;;;;;;5.60;94.42;94823.66;6132133;23;20156;-88
2023/03/26 03:15:22;;;;;;;7.80;2.03;;;;;;;5.54;94.70;94826.78;6132280;23;20170;-87
2023/03/26 03:17:47;;;;;;;8.30;2.47;;;;;;;5.62;95.09;94816.63;6108795;23;20191;-86
2023/03/26 03:20:14;;;;;;;7.57;1.97;;;;;;;5.62;94.82;94809.69;6108613;23;20238;-87
2023/03/26 03:22:40;;;;;;;5.20;1.83;;;;;;;5.61;95.19;94807.25;6108171;23;20182;-87
2023/03/26 03:25:08;;;;;;;6.90;1.77;;;;;;;5.58;95.04;94804.97;6108222;23;20167;-86
2023/03/26 03:27:33;;;;;;;7.93;1.80;;;;;;;5.51;95.64;94798.72;6156834;23;20632;-87
2023/03/26 03:29:59;;;;;;;6.27;1.83;;;;;;;5.64;95.47;94791.53;6132481;23;20155;-86
2023/03/26 03:32:24;;;;;;;7.03;2.00;;;;;;;5.57;95.23;94793.03;6108745;23;20155;-87
2023/03/26 03:34:50;;;;;;;5.20;1.80;;;;;;;5.62;95.19;94790.84;6107616;23;20214;-87
2023/03/26 03:37:16;;;;;;;8.50;1.83;;;;;;;5.58;95.22;94785.19;6132571;23;20207;-87
2023/03/26 03:39:41;;;;;;;5.90;1.83;;;;;;;5.68;94.75;94792.91;6133191;23;20286;-86
2023/03/26 03:42:07;;;;;;;6.20;1.87;;;;;;;5.58;94.90;94795.47;6124094;23;20154;-88
2023/03/26 03:44:32;;;;;;;7.60;2.20;;;;;;;5.50;95.66;94791.94;6133278;23;20183;-89
2023/03/26 03:46:57;;;;;;;7.73;2.07;;;;;;;5.65;94.56;94785.44;6129631;23;20163;-84
2023/03/26 03:49:23;;;;;;;10.97;2.80;;;;;;;5.67;94.38;94783.56;6134194;23;20191;-85
2023/03/26 03:51:48;;;;;;;9.53;1.87;;;;;;;5.71;94.41;94774.59;6107245;23;20579;-85
2023/03/26 03:54:13;;;;;;;8.23;2.07;;;;;;;5.74;93.70;94764.00;6131667;23;20163;-86
2023/03/26 03:56:39;;;;;;;6.83;2.00;;;;;;;5.71;94.47;94771.19;6131280;23;20174;-86
2023/03/26 03:59:04;;;;;;;5.67;2.33;;;;;;;5.78;94.09;94765.38;6107604;23;20254;-85
2023/03/26 04:01:30;;;;;;;6.07;2.10;;;;;;;5.82;93.57;94765.88;6107742;23;20167;-85
2023/03/26 04:03:56;;;;;;;3.53;1.80;;;;;;;5.85;93.17;94755.31;6132206;23;20169;-85
2023/03/26 04:06:24;;;;;;;7.17;2.37;;;;;;;5.80;93.19;94748.00;6131186;23;20155;-86
2023/03/26 04:08:52;;;;;;;6.07;2.17;;;;;;;5.83;93.42;94742.59;6155731;23;20185;-85
2023/03/26 04:11:17;;;;;;;3.00;1.57;;;;;;;5.81;93.58;94736.75;6106354;23;20166;-85
2023/03/26 04:13:43;;;;;;;7.77;1.97;;;;;;;5.75;94.40;94744.22;6106362;23;20167;-87
2023/03/26 04:16:09;;;;;;;6.37;1.87;;;;;;;5.72;94.41;94744.47;6132257;23;20530;-87
2023/03/26 04:18:36;;;;;;;8.37;2.00;;;;;;;5.63;94.90;94741.78;6132107;23;20242;-87
2023/03/26 04:21:01;;;;;;;6.90;1.97;;;;;;;5.63;94.52;94725.50;6108388;23;20152;-87
2023/03/26 04:23:28;;;;;;;3.93;1.53;;;;;;;5.71;94.14;94717.91;6107936;23;20294;-87
2023/03/26 04:25:54;;;;;;;8.93;2.43;;;;;;;5.79;93.40;94707.72;6107388;23;20166;-87
2023/03/26 04:28:27;;;;;;;6.83;1.43;;;;;;;5.85;93.87;94709.75;6108090;23;20186;-86
2023/03/26 04:30:53;;;;;;;7.17;1.60;;;;;;;5.85;93.28;94698.66;6108858;23;20147;-85
2023/03/26 04:33:19;;;;;;;4.20;1.90;;;;;;;5.79;94.08;94702.56;6107888;23;20159;-87
2023/03/26 04:35:47;;;;;;;9.63;2.07;;;;;;;5.64;95.23;94721.97;6131746;23;20159;-86
2023/03/26 04:38:15;;;;;;;8.17;1.87;;;;;;;5.36;97.80;94719.28;6107965;23;20637;-86
2023/03/26 04:40:42;;;;;;;5.37;1.77;;;;;;;5.52;96.96;94707.63;6107626;23;20159;-86
2023/03/26 04:43:11;;;;;;;5.90;2.17;;;;;;;5.57;96.59;94695.19;6132182;23;20299;-87
2023/03/26 04:45:37;;;;;;;4.50;2.00;;;;;;;5.76;95.06;94684.84;6107261;23;20166;-85
2023/03/26 04:48:02;;;;;;;8.97;2.17;;;;;;;5.81;94.23;94685.22;6106374;23;20625;-86
2023/03/26 04:50:28;;;;;;;7.93;1.80;;;;;;;5.77;94.30;94685.66;6106259;23;20159;-87
2023/03/26 04:52:55;;;;;;;6.37;2.00;;;;;;;5.73;94.85;94679.13;6131190;23;20159;-86
2023/03/26 04:55:32;;;;;;;6.53;1.90;;;;;;;5.66;95.37;94677.13;6107255;23;20609;-86
2023/03/26 04:58:04;;;;;;;8.20;2.00;;;;;;;5.69;95.55;94687.16;6131163;23;20182;-86
2023/03/26 05:00:29;;;;;;;5.27;2.13;;;;;;;5.60;96.31;94694.88;6107853;23;20147;-86
2023/03/26 05:02:56;;;;;;;5.87;1.80;;;;;;;5.55;95.84;94673.88;6107533;23;20162;-86
2023/03/26 05:05:22;;;;;;;7.17;1.80;;;;;;;5.68;96.06;94679.56;6106524;23;20226;-87
2023/03/26 05:07:47;;;;;;;5.23;1.80;;;;;;;5.59;96.51;94668.31;6156393;23;20178;-86
2023/03/26 05:10:14;;;;;;;6.37;1.67;;;;;;;5.66;96.20;94651.38;6156571;23;20155;-86
2023/03/26 05:12:40;;;;;;;4.77;1.90;;;;;;;5.78;95.75;94653.78;6106746;23;20159;-88
2023/03/26 05:15:06;;;;;;;8.50;2.37;;;;;;;5.83;95.22;94644.69;6155746;23;20218;-86
2023/03/26 05:17:33;;;;;;;5.77;1.77;;;;;;;5.86;95.26;94638.44;6131008;23;20206;-86
2023/03/26 05:19:59;;;;;;;5.17;1.53;;;;;;;5.84;94.30;94625.69;6132155;23;20594;-87
2023/03/26 05:22:25;;;;;;;6.33;1.93;;;;;;;5.84;95.01;94622.31;6106691;23;20151;-85
2023/03/26 05:24:51;;;;;;;6.47;2.40;;;;;;;5.77;95.03;94627.19;6106769;23;20545;-86
2023/03/26 05:27:18;;;;;;;6.57;2.10;;;;;;;5.85;94.69;94611.84;6130960;23;20178;-86
2023/03/26 05:29:44;;;;;;;5.30;2.30;;;;;;;5.86;94.56;94615.25;6107019;23;20155;-86
2023/03/26 05:32:10;;;;;;;5.90;2.20;;;;;;;5.86;94.36;94618.63;6106566;23;20178;-86
2023/03/26 05:34:35;;;;;;;8.83;2.20;;;;;;;5.86;94.74;94613.47;6106113;23;20159;-90
2023/03/26 05:37:03;;;;;;;7.60;2.23;;;;;;;5.93;93.57;94612.00;6105960;23;20155;-85
2023/03/26 05:39:28;;;;;;;7.43;2.03;;;;;;;5.93;92.35;94609.41;6130015;23;20186;-87
2023/03/26 05:41:54;;;;;;;5.17;1.63;;;;;;;6.02;91.57;94596.63;6106588;23;20602;-84
2023/03/26 05:44:19;;;;;;;4.40;1.70;;;;;;;6.09;90.77;94587.34;6156021;23;20158;-86
2023/03/26 05:46:44;;;;;;;4.37;1.80;;;;;;;6.01;90.86;94574.34;6106628;23;20162;-87
2023/03/26 05:49:10;;;;;;;7.80;1.67;;;;;;;6.08;91.34;94570.25;6107083;23;20186;-86
2023/03/26 05:51:35;;;;;;;7.23;2.40;;;;;;;6.12;91.26;94561.31;6131403;23;20155;-85
2023/03/26 05:54:00;;;;;;;7.67;2.23;;;;;;;6.11;91.47;94564.84;6107151;23;20155;-86
2023/03/26 05:56:26;;;;;;;8.03;1.97;;;;;;;6.14;91.27;94556.81;6130599;23;20171;-84
2023/03/26 05:58:51;;;;;;;11.63;2.63;;;;;;;6.10;91.86;94560.63;6106423;23;20191;-86
2023/03/26 06:01:18;;;;;;;4.80;1.70;;;;;;;6.16;92.07;94562.63;6106505;23;20503;-87
2023/03/26 06:03:44;;;;;;;5.73;1.80;;;;;;;6.22;91.81;94551.75;6107336;23;20155;-84
2023/03/26 06:06:14;;;;;;;5.87;1.77;;;;;;;6.20;91.91;94551.09;6106469;23;20170;-86
2023/03/26 06:08:45;;;;;;;6.50;1.70;;;;;;;6.23;92.27;94543.84;6130996;23;20242;-86
2023/03/26 06:11:11;;;;;;;4.13;1.83;;;;;;;6.21;92.22;94537.22;6107734;23;20156;-84
2023/03/26 06:13:37;;;;;;;6.30;3.03;;;;;;;6.23;91.84;94530.97;6154402;23;20170;-86
2023/03/26 06:16:03;;;;;;;6.17;2.07;;;;;;;6.29;92.01;94531.34;6129990;23;20191;-84
2023/03/26 06:18:28;;;;;;;6.33;2.07;;;;;;;6.20;92.08;94535.59;6107915;23;20226;-84
2023/03/26 06:20:53;;;;;;;5.23;2.23;;;;;;;6.34;91.77;94529.94;6107719;23;20526;-86
2023/03/26 06:23:19;;;;;;;7.30;2.50;;;;;;;6.36;91.69;94529.78;6108366;23;20634;-85
2023/03/26 06:25:47;;;;;;;7.77;2.80;;;;;;;6.41;91.15;94533.56;6131872;23;20594;-84
2023/03/26 06:28:13;;;;;;;7.30;3.03;;;;;;;6.44;91.03;94537.59;6108668;23;20261;-85
2023/03/26 06:30:39;;;;;;;6.60;2.17;;;;;;;6.23;92.67;94522.41;6107884;23;20168;-85
2023/03/26 06:33:04;;;;;;;7.00;2.50;;;;;;;6.23;92.11;94514.69;6132692;23;20167;-84
2023/03/26 06:35:30;;;;;;;8.57;2.30;;;;;;;6.24;92.35;94508.56;6107637;23;20245;-84
2023/03/26 06:37:56;;;;;;;4.40;2.00;;;;;;;6.33;91.29;94506.88;6158089;23;20183;-85
2023/03/26 06:40:21;;;;;;;4.37;1.77;;;;;;;6.35;91.88;94508.34;6132312;23;20190;-86
2023/03/26 06:42:46;;;;;;;7.60;1.83;;;;;;;6.30;92.20;94496.88;6133049;23;20175;-87
2023/03/26 06:45:12;;;;;;;8.50;2.57;;;;;;;6.37;91.80;94495.31;6108244;23;20159;-84
2023/03/26 06:47:37;;;;;;;8.87;2.87;;;;;;;6.36;91.13;94497.09;6108513;23;20175;-83
2023/03/26 06:50:03;;;;;;;5.33;2.50;;;;;;;6.37;91.38;94485.81;6108496;23;20151;-84
2023/03/26 06:52:28;;;;;;;6.40;2.70;;;;;;;6.38;91.08;94486.63;6132090;23;20630;-84
2023/03/26 06:54:54;;;;;;;9.07;2.20;;;;;;;6.29;91.66;94485.75;6132423;23;20159;-85
2023/03/26 06:57:19;;;;;;;5.63;1.90;;;;;;;6.34;91.55;94478.38;6107811;23;20237;-84
2023/03/26 06:59:45;;;;;;;6.47;2.07;;;;;;;6.50;90.56;94472.53;6108269;23;20196;-86
2023/03/26 07:02:10;;;;;;;3.10;1.83;;;;;;;6.54;91.06;94466.16;6107942;23;20598;-85
2023/03/26 07:04:36;;;;;;;8.57;2.00;;;;;;;6.51;90.81;94467.22;6107850;23;20200;-86
2023/03/26 07:07:01;;;;;;;4.17;1.90;;;;;;;6.48;91.42;94459.00;6132593;23;20175;-85
2023/03/26 07:09:29;;;;;;;8.70;2.27;;;;;;;6.49;91.86;94452.88;6133109;23;20164;-85
2023/03/26 07:11:55;;;;;;;9.93;2.07;;;;;;;6.53;91.86;94449.81;6133026;23;20628;-84
2023/03/26 07:14:20;;;;;;;6.67;2.00;;;;;;;6.47;91.95;94441.91;6131878;23;20536;-86
2023/03/26 07:16:51;;;;;;;8.80;2.00;;;;;;;6.32;92.87;94440.81;6131074;23;20159;-86
2023/03/26 07:19:17;;;;;;;6.47;1.87;;;;;;;6.39;92.21;94437.47;6132382;23;20194;-84
2023/03/26 07:21:42;;;;;;;10.07;2.40;;;;;;;6.42;92.55;94444.91;6132433;23;20151;-86
2023/03/26 07:24:10;;;;;;;7.17;2.47;;;;;;;6.46;91.63;94435.13;6132037;23;20770;-86
2023/03/26 07:26:52;;;;;;;6.93;2.10;;;;;;;6.39;93.22;94418.63;6131861;23;20610;-86
2023/03/26 07:29:51;;;;;;;14.73;7.73;;;;;;;6.44;92.70;94424.94;6127068;23;20187;-87
2023/03/26 07:32:24;;;;;;;18.77;9.27;;;;;;;6.29;93.32;94430.78;6103107;23;20158;-87
2023/03/26 07:34:55;;;;;;;9.27;3.83;;;;;;;6.44;93.61;94422.34;6103649;23;20269;-86
2023/03/26 07:37:46;;;;;;;7.83;2.50;;;;;;;6.32;94.29;94415.81;6103208;23;20196;-86
2023/03/26 07:40:36;;;;;;;10.97;4.33;;;;;;;6.53;93.14;94411.13;6104047;23;20160;-86
2023/03/26 07:43:12;;;;;;;9.07;5.57;;;;;;;6.58;92.96;94402.16;6150909;23;20155;-84
2023/03/26 07:45:41;;;;;;;17.50;9.73;;;;;;;6.50;94.25;94405.47;6101079;23;20155;-85
2023/03/26 07:48:19;;;;;;;12.13;5.73;;;;;;;6.70;94.00;94406.09;6101212;23;20186;-84
2023/03/26 07:50:46;;;;;;;31.97;20.20;;;;;;;6.68;93.82;94397.69;6098380;23;20625;-84
2023/03/26 07:53:11;;;;;;;44.30;29.23;;;;;;;6.85;93.80;94381.34;6098940;23;20152;-83
2023/03/26 07:56:05;;;;;;;12.67;6.03;;;;;;;6.98;92.88;94374.03;6123089;23;20219;-83
2023/03/26 07:58:55;;;;;;;8.17;4.57;;;;;;;6.93;92.95;94386.56;6149813;23;20194;-84
2023/03/26 08:01:46;;;;;;;15.17;10.00;;;;;;;6.84;94.01;94382.31;6127726;23;20192;-85
2023/03/26 08:04:26;;;;;;;9.03;4.10;;;;;;;7.02;93.31;94380.47;6126566;23;20172;-85
2023/03/26 08:06:57;;;;;;;9.73;4.13;;;;;;;7.06;93.47;94363.69;6110845;23;20179;-85
2023/03/26 08:09:39;;;;;;;11.77;5.23;;;;;;;7.00;93.40;94364.34;6105797;23;20203;-85
2023/03/26 08:12:19;;;;;;;7.40;3.30;;;;;;;6.98;93.43;94355.94;6151380;23;20171;-85
2023/03/26 08:15:09;;;;;;;9.03;3.20;;;;;;;7.04;94.00;94362.25;6099899;23;20164;-85
2023/03/26 08:17:43;;;;;;;9.00;3.10;;;;;;;6.91;94.14;94367.03;6150766;23;20528;-85
2023/03/26 08:20:16;;;;;;;9.93;3.00;;;;;;;7.12;93.01;94358.91;6101761;23;20167;-85
2023/03/26 08:22:44;;;;;;;9.97;3.23;;;;;;;7.03;93.54;94361.44;6127302;23;20205;-85
2023/03/26 08:25:31;;;;;;;6.63;2.30;;;;;;;7.15;93.23;94366.31;6099414;23;20160;-86
2023/03/26 08:28:38;;;;;;;9.70;3.53;;;;;;;6.94;94.21;94371.88;6102559;23;20641;-85
2023/03/26 08:31:04;;;;;;;7.27;2.50;;;;;;;6.85;94.78;94360.72;6152038;23;20623;-86
2023/03/26 08:33:29;;;;;;;8.93;2.53;;;;;;;6.79;94.64;94358.72;6127951;23;20167;-84
2023/03/26 08:35:58;;;;;;;10.37;2.80;;;;;;;6.86;95.11;94364.09;6101712;23;20235;-85
2023/03/26 08:38:23;;;;;;;5.57;2.50;;;;;;;6.80;95.60;94353.44;6125431;23;20207;-84
2023/03/26 08:41:18;;;;;;;7.00;3.20;;;;;;;6.94;94.71;94351.25;6126155;23;20266;-85
2023/03/26 08:44:05;;;;;;;8.17;2.77;;;;;;;7.29;94.30;94338.13;6101924;23;20152;-85
2023/03/26 08:46:50;;;;;;;7.30;2.77;;;;;;;7.36;93.88;94359.00;6150429;23;20160;-87
2023/03/26 08:49:22;;;;;;;8.87;2.53;;;;;;;7.45;94.60;94358.06;6102413;23;20184;-84
2023/03/26 08:51:55;;;;;;;6.47;2.30;;;;;;;7.49;94.27;94349.00;6128502;23;20154;-84
2023/03/26 08:54:30;;;;;;;6.17;2.23;;;;;;;7.52;93.24;94348.72;6103783;23;20188;-85
2023/03/26 08:57:25;;;;;;;5.30;2.67;;;;;;;7.89;93.42;94355.22;6150906;23;20795;-85
2023/03/26 09:00:32;;;;;;;6.60;2.47;;;;;;;8.01;92.89;94351.34;6150775;23;20195;-88
2023/03/26 09:03:12;;;;;;;5.53;2.00;;;;;;;8.20;93.21;94340.69;6102915;23;20507;-86
2023/03/26 09:06:01;;;;;;;5.97;2.20;;;;;;;8.17;93.76;94350.56;6128032;23;20583;-85
2023/03/26 09:08:45;;;;;;;6.20;1.40;;;;;;;8.80;92.58;94352.44;6128112;23;20254;-86
2023/03/26 09:11:15;;;;;;;4.67;1.47;;;;;;;8.93;88.95;94341.56;6151672;23;20183;-86
2023/03/26 09:13:59;;;;;;;2.23;1.17;;;;;;;9.42;86.35;94338.78;6102689;23;20168;-86
2023/03/26 09:16:30;;;;;;;3.07;1.40;;;;;;;9.22;85.19;94346.16;6151610;23;20159;-84
2023/03/26 09:19:28;;;;;;;2.27;1.23;;;;;;;8.80;85.90;94349.84;6150648;23;20199;-85
2023/03/26 09:22:12;;;;;;;2.13;1.10;;;;;;;8.80;86.91;94344.66;6103289;23;20171;-84
2023/03/26 09:25:05;;;;;;;3.13;1.50;;;;;;;8.56;89.72;94350.69;6128717;23;20275;-83
2023/03/26 09:27:47;;;;;;;3.20;1.40;;;;;;;8.82;88.42;94336.72;6102873;23;20191;-84
2023/03/26 09:30:40;;;;;;;3.03;1.30;;;;;;;9.02;88.14;94366.47;6151777;23;20160;-85
2023/03/26 09:33:25;;;;;;;3.07;1.80;;;;;;;9.12;87.34;94358.50;6151451;23;20192;-85
2023/03/26 09:36:04;;;;;;;4.63;1.33;;;;;;;9.02;86.46;94345.75;6152505;23;20167;-86
2023/03/26 09:39:02;;;;;;;3.90;1.73;;;;;;;8.55;86.52;94350.88;6100760;23;20195;-84
2023/03/26 09:42:06;;;;;;;2.53;1.47;;;;;;;9.11;83.74;94362.88;6152029;23;20160;-86
2023/03/26 09:45:11;;;;;;;2.80;1.50;;;;;;;8.96;83.90;94362.75;6152116;23;20160;-86
2023/03/26 09:47:56;;;;;;;3.97;1.53;;;;;;;9.06;83.73;94359.97;6144091;23;20244;-85
2023/03/26 09:50:57;;;;;;;3.77;1.53;;;;;;;9.16;81.08;94363.16;6150206;23;20158;-87
2023/03/26 09:53:43;;;;;;;2.03;1.30;;;;;;;9.57;80.60;94365.59;6016419;23;20165;-85
2023/03/26 09:56:26;;;;;;;2.93;1.70;;;;;;;9.57;78.42;94350.84;6094132;23;20164;-85
2023/03/26 09:59:27;;;;;;;2.17;1.20;;;;;;;9.64;78.38;94356.97;6151661;23;20207;-86
2023/03/26 10:02:15;;;;;;;4.10;1.13;;;;;;;10.31;77.16;94358.97;6068363;23;20176;-87
2023/03/26 10:05:18;;;;;;;3.20;1.73;;;;;;;10.40;73.95;94363.09;6102940;23;20211;-84
2023/03/26 10:07:52;;;;;;;4.40;1.30;;;;;;;10.57;74.92;94352.56;6129447;23;20295;-84
2023/03/26 10:10:22;;;;;;;4.37;2.10;;;;;;;10.29;70.68;94345.34;6101907;23;20156;-84
2023/03/26 10:12:57;;;;;;;4.57;1.83;;;;;;;10.61;71.06;94351.25;6101995;23;20159;-83
2023/03/26 10:15:49;;;;;;;4.93;1.70;;;;;;;10.20;70.35;94361.94;6122491;23;20135;-85
2023/03/26 10:18:21;;;;;;;2.27;1.43;;;;;;;10.15;71.92;94349.47;6122673;23;20215;-82
2023/03/26 10:21:29;;;;;;;5.60;1.80;;;;;;;10.58;71.49;94354.19;6145434;23;20164;-80
2023/03/26 10:24:05;;;;;;;4.13;1.17;;;;;;;10.66;71.30;94347.13;5984630;23;20170;-81
2023/03/26 10:26:40;;;;;;;3.60;1.60;;;;;;;10.11;70.29;94347.41;5984040;23;20245;-82
2023/03/26 10:29:29;;;;;;;1.70;1.20;;;;;;;10.52;70.49;94350.53;6032193;23;20197;-81
2023/03/26 10:32:08;;;;;;;3.37;1.30;;;;;;;10.65;68.10;94355.91;6036741;23;20147;-84
2023/03/26 10:35:11;;;;;;;3.00;1.00;;;;;;;10.20;68.84;94348.97;6036065;23;20165;-83
2023/03/26 10:37:44;;;;;;;1.73;1.10;;;;;;;10.13;68.51;94363.59;6041248;23;20221;-85
2023/03/26 10:40:26;;;;;;;4.40;1.63;;;;;;;10.49;69.29;94349.06;6017304;23;20624;-85
2023/03/26 10:43:10;;;;;;;2.67;1.27;;;;;;;10.10;67.62;94345.81;5993412;23;20590;-87
2023/03/26 10:45:54;;;;;;;3.13;2.83;;;;;;;10.17;66.51;94341.53;6013318;23;20225;-87
2023/03/26 10:48:29;;;;;;;1.87;0.97;;;;;;;10.48;67.05;94325.88;6066553;23;20309;-87
2023/03/26 10:50:54;;;;;;;4.10;1.23;;;;;;;10.66;67.29;94322.97;6019323;23;20174;-90
2023/03/26 10:53:48;;;;;;;1.10;1.00;;;;;;;10.42;66.55;94331.78;6064961;23;20217;-83
2023/03/26 10:56:31;;;;;;;1.77;0.70;;;;;;;10.17;62.95;94325.97;6151461;23;20159;-81
2023/03/26 10:59:00;;;;;;;4.53;1.57;;;;;;;10.32;62.94;94333.81;6128305;23;20187;-81
2023/03/26 11:01:51;;;;;;;2.93;1.50;;;;;;;10.70;61.99;94322.44;6127441;23;20144;-79
2023/03/26 11:04:31;;;;;;;2.97;2.00;;;;;;;11.10;62.11;94322.16;6113010;23;20581;-80
2023/03/26 11:07:20;;;;;;;2.63;0.70;;;;;;;11.22;61.45;94311.16;6100221;23;20191;-82
2023/03/26 11:09:48;;;;;;;1.43;0.90;;;;;;;11.18;59.29;94314.28;6100847;23;20152;-81
2023/03/26 11:12:20;;;;;;;2.30;1.40;;;;;;;10.93;59.78;94330.13;6149555;23;20203;-81
2023/03/26 11:14:54;;;;;;;3.73;1.20;;;;;;;10.89;60.22;94326.28;6150440;23;20164;-83
2023/03/26 11:30:54;;;;;;;1.63;1.00;;;;;;;10.42;69.89;94337.78;6152218;23;20543;-78
2023/03/26 11:52:31;;;;;;;2.00;1.00;;;;;;;10.45;77.75;94345.22;6120645;23;20215;-83
2023/03/26 11:54:58;;;;;;;2.33;1.20;;;;;;;10.53;78.28;94346.94;6130884;23;20148;-82
2023/03/26 11:57:31;;;;;;;3.43;1.40;;;;;;;10.44;78.44;94354.00;6130632;23;20179;-83
2023/03/26 12:00:06;;;;;;;2.17;1.20;;;;;;;10.69;77.64;94348.56;6132578;23;20159;-82
2023/03/26 12:02:39;;;;;;;2.10;1.77;;;;;;;10.84;76.27;94348.56;6177132;23;20139;-82
2023/03/26 12:05:12;;;;;;;3.87;1.70;;;;;;;10.74;76.88;94343.66;6127703;23;20163;-83
2023/03/26 12:07:53;;;;;;;4.03;1.70;;;;;;;10.48;75.28;94342.25;6128561;23;20183;-82
2023/03/26 12:10:29;;;;;;;3.70;1.70;;;;;;;10.70;73.88;94343.22;6151665;23;20163;-84
2023/03/26 12:12:58;;;;;;;4.37;1.70;;;;;;;10.79;74.44;94346.53;6129536;23;20624;-84
2023/03/26 12:15:23;;;;;;;2.80;1.40;;;;;;;10.51;73.82;94338.50;6152851;23;20559;-83
2023/03/26 12:17:54;;;;;;;3.27;1.03;;;;;;;10.70;72.34;94334.63;6154418;23;20190;-83
2023/03/26 12:20:25;;;;;;;7.40;2.00;;;;;;;10.74;72.31;94338.47;6156140;23;20147;-83
2023/03/26 12:22:57;;;;;;;3.47;1.50;;;;;;;10.46;70.71;94331.25;6156681;23;20660;-83
2023/03/26 12:25:25;;;;;;;4.47;1.40;;;;;;;10.65;69.43;94329.13;6133055;23;20302;-84
2023/03/26 12:28:01;;;;;;;3.33;1.40;;;;;;;10.46;67.68;94339.03;6132501;23;20226;-84
2023/03/26 12:30:53;;;;;;;4.63;1.67;;;;;;;10.57;67.00;94327.41;6156642;23;20151;-85
2023/03/26 12:33:24;;;;;;;4.93;2.20;;;;;;;10.49;66.24;94317.91;6118535;23;20163;-83
2023/03/26 12:35:50;;;;;;;3.30;1.53;;;;;;;10.77;65.63;94312.94;6153772;23;20234;-82